Vihari Weather



Vihari's Current Weather

Temprature 27.116o clear sky

clear sky

Rain: 0 %

Min Temprature27.116o
Max Temprature27.116o
Humidity28
Wind Speed2.13 m/h
Sun Rise05:37:47
Sun Set18:40:40
Current Time: 21-Apr-2019 06:05:50
Lat/Lon: 30.03, 72.35




Vihari's Geo Location



Vihari's Weather Forecast

Time Overall Temp Min Temp Max Temp Humidity Wind Speed Rain
21-Apr-2019 (Sun)
08:00:00 clear sky 32.090 32.089 32.090 20 2.93 m/h 0 %
11:00:00 clear sky 37.650 37.650 37.650 13 3.73 m/h 0 %
14:00:00 clear sky 39.950 39.950 39.950 11 3.67 m/h 0 %
17:00:00 clear sky 39.650 39.650 39.650 11 3.97 m/h 0 %
20:00:00 clear sky 33.650 33.650 33.650 16 1.55 m/h 0 %
23:00:00 clear sky 31.800 31.800 31.800 18 2.55 m/h 0 %
22-Apr-2019 (Mon)
02:00:00 clear sky 29.570 29.570 29.570 22 2.87 m/h 0 %
05:00:00 clear sky 27.844 27.844 27.844 26 2.28 m/h 0 %
08:00:00 clear sky 32.566 32.566 32.566 21 3.53 m/h 0 %
11:00:00 clear sky 40.020 40.020 40.020 12 0.85 m/h 0 %
14:00:00 clear sky 42.315 42.315 42.315 10 3.53 m/h 0 %
17:00:00 clear sky 42.131 42.131 42.131 9 3.79 m/h 0 %
20:00:00 clear sky 35.750 35.750 35.750 12 0.67 m/h 0 %
23:00:00 clear sky 33.896 33.896 33.896 14 1.91 m/h 0 %
23-Apr-2019 (Tue)
02:00:00 clear sky 31.277 31.277 31.277 17 2.41 m/h 0 %
05:00:00 few clouds 29.956 29.956 29.956 20 2.52 m/h 0 %
08:00:00 broken clouds 34.627 34.627 34.627 17 3.13 m/h 0 %
11:00:00 scattered clouds 41.550 41.550 41.550 9 3.09 m/h 0 %
14:00:00 clear sky 44.750 44.750 44.750 7 6.47 m/h 0 %
17:00:00 clear sky 43.150 43.150 43.150 8 4.56 m/h 0 %
20:00:00 clear sky 36.728 36.728 36.728 12 0.24 m/h 0 %
23:00:00 scattered clouds 34.850 34.850 34.850 12 1.68 m/h 0 %
24-Apr-2019 (Wed)
02:00:00 broken clouds 33.482 33.482 33.482 12 3.14 m/h 0 %
05:00:00 scattered clouds 31.384 31.384 31.384 16 3.5 m/h 0 %
08:00:00 clear sky 36.450 36.450 36.450 16 6.16 m/h 0 %
11:00:00 clear sky 42.409 42.409 42.409 8 6.21 m/h 0 %
14:00:00 clear sky 43.750 43.750 43.750 5 5.62 m/h 0 %
17:00:00 clear sky 42.250 42.250 42.250 6 3.64 m/h 0 %
20:00:00 clear sky 35.155 35.155 35.155 16 3.92 m/h 0 %
23:00:00 clear sky 30.945 30.945 30.945 31 8.43 m/h 0 %
25-Apr-2019 (Thu)
02:00:00 overcast clouds 30.550 30.550 30.550 30 4.8 m/h 0 %
05:00:00 light rain 28.032 28.032 28.032 41 3.32 m/h 81 %
08:00:00 scattered clouds 31.320 31.320 31.320 35 4.65 m/h 0 %
11:00:00 scattered clouds 36.190 36.190 36.190 24 2.25 m/h 0 %
14:00:00 scattered clouds 39.350 39.350 39.350 18 1.54 m/h 0 %
17:00:00 few clouds 39.211 39.211 39.211 17 2.27 m/h 0 %
20:00:00 clear sky 34.925 34.925 34.925 22 2.47 m/h 0 %
23:00:00 clear sky 32.843 32.843 32.843 24 1.9 m/h 0 %
26-Apr-2019 (Fri)
02:00:00 clear sky 30.532 30.532 30.532 25 3.57 m/h 0 %
05:00:00 clear sky 29.596 29.596 29.596 24 3.85 m/h 0 %

Famous Cities (60)